sensor_id;sensor_type;location;lat;lon;timestamp;P1;durP1;ratioP1;P2;durP2;ratioP2
72856;SDS011;61360;52.134;4.494;2022-07-23T00:00:08;6.45;;;2.90;;
72856;SDS011;61360;52.134;4.494;2022-07-23T00:02:35;4.63;;;2.50;;
72856;SDS011;61360;52.134;4.494;2022-07-23T00:05:02;5.93;;;2.35;;
72856;SDS011;61360;52.134;4.494;2022-07-23T00:07:29;4.75;;;2.55;;
72856;SDS011;61360;52.134;4.494;2022-07-23T00:09:55;6.68;;;2.85;;
72856;SDS011;61360;52.134;4.494;2022-07-23T00:12:22;4.35;;;2.20;;
72856;SDS011;61360;52.134;4.494;2022-07-23T00:14:49;7.20;;;3.10;;
72856;SDS011;61360;52.134;4.494;2022-07-23T00:17:15;7.15;;;2.83;;
72856;SDS011;61360;52.134;4.494;2022-07-23T00:19:42;6.05;;;2.95;;
72856;SDS011;61360;52.134;4.494;2022-07-23T00:22:08;8.40;;;3.05;;
72856;SDS011;61360;52.134;4.494;2022-07-23T00:24:35;7.25;;;2.95;;
72856;SDS011;61360;52.134;4.494;2022-07-23T00:27:01;5.93;;;2.80;;
72856;SDS011;61360;52.134;4.494;2022-07-23T00:29:28;5.13;;;2.25;;
72856;SDS011;61360;52.134;4.494;2022-07-23T00:31:55;11.77;;;3.50;;
72856;SDS011;61360;52.134;4.494;2022-07-23T00:34:21;5.57;;;2.80;;
72856;SDS011;61360;52.134;4.494;2022-07-23T00:36:48;6.57;;;2.70;;
72856;SDS011;61360;52.134;4.494;2022-07-23T00:39:14;6.18;;;3.03;;
72856;SDS011;61360;52.134;4.494;2022-07-23T00:41:41;5.20;;;3.25;;
72856;SDS011;61360;52.134;4.494;2022-07-23T00:44:18;6.72;;;3.20;;
72856;SDS011;61360;52.134;4.494;2022-07-23T00:46:53;5.78;;;3.38;;
72856;SDS011;61360;52.134;4.494;2022-07-23T00:49:25;6.38;;;3.75;;
72856;SDS011;61360;52.134;4.494;2022-07-23T00:51:55;7.80;;;4.32;;
72856;SDS011;61360;52.134;4.494;2022-07-23T00:54:24;9.00;;;4.05;;
72856;SDS011;61360;52.134;4.494;2022-07-23T00:56:52;5.43;;;3.22;;
72856;SDS011;61360;52.134;4.494;2022-07-23T00:59:20;6.05;;;3.75;;
72856;SDS011;61360;52.134;4.494;2022-07-23T01:01:46;7.43;;;3.28;;
72856;SDS011;61360;52.134;4.494;2022-07-23T01:04:15;8.63;;;4.00;;
72856;SDS011;61360;52.134;4.494;2022-07-23T01:06:43;11.48;;;6.03;;
72856;SDS011;61360;52.134;4.494;2022-07-23T01:09:11;6.75;;;3.90;;
72856;SDS011;61360;52.134;4.494;2022-07-23T01:11:38;8.63;;;3.42;;
72856;SDS011;61360;52.134;4.494;2022-07-23T01:14:14;6.35;;;3.00;;
72856;SDS011;61360;52.134;4.494;2022-07-23T01:16:43;5.40;;;3.23;;
72856;SDS011;61360;52.134;4.494;2022-07-23T01:19:12;5.50;;;3.40;;
72856;SDS011;61360;52.134;4.494;2022-07-23T01:21:41;7.97;;;4.05;;
72856;SDS011;61360;52.134;4.494;2022-07-23T01:24:12;6.05;;;3.25;;
72856;SDS011;61360;52.134;4.494;2022-07-23T01:26:41;10.90;;;4.18;;
72856;SDS011;61360;52.134;4.494;2022-07-23T01:29:10;6.90;;;3.30;;
72856;SDS011;61360;52.134;4.494;2022-07-23T01:31:37;6.93;;;3.33;;
72856;SDS011;61360;52.134;4.494;2022-07-23T01:34:05;5.60;;;3.38;;
72856;SDS011;61360;52.134;4.494;2022-07-23T01:36:33;8.30;;;3.67;;
72856;SDS011;61360;52.134;4.494;2022-07-23T01:39:00;9.05;;;4.03;;
72856;SDS011;61360;52.134;4.494;2022-07-23T01:41:29;7.63;;;3.25;;
72856;SDS011;61360;52.134;4.494;2022-07-23T01:43:56;8.82;;;4.82;;
72856;SDS011;61360;52.134;4.494;2022-07-23T01:46:23;7.03;;;3.28;;
72856;SDS011;61360;52.134;4.494;2022-07-23T01:48:49;7.43;;;3.50;;
72856;SDS011;61360;52.134;4.494;2022-07-23T01:51:16;6.72;;;3.03;;
72856;SDS011;61360;52.134;4.494;2022-07-23T01:53:43;5.65;;;2.65;;
72856;SDS011;61360;52.134;4.494;2022-07-23T01:56:10;7.18;;;3.17;;
72856;SDS011;61360;52.134;4.494;2022-07-23T01:58:36;5.90;;;3.08;;
72856;SDS011;61360;52.134;4.494;2022-07-23T02:01:03;7.15;;;3.67;;
72856;SDS011;61360;52.134;4.494;2022-07-23T02:03:29;8.32;;;3.60;;
72856;SDS011;61360;52.134;4.494;2022-07-23T02:05:56;6.57;;;3.90;;
72856;SDS011;61360;52.134;4.494;2022-07-23T02:08:23;6.03;;;3.15;;
72856;SDS011;61360;52.134;4.494;2022-07-23T02:10:49;6.30;;;3.20;;
72856;SDS011;61360;52.134;4.494;2022-07-23T02:13:17;8.55;;;4.10;;
72856;SDS011;61360;52.134;4.494;2022-07-23T02:15:45;6.78;;;3.03;;
72856;SDS011;61360;52.134;4.494;2022-07-23T02:18:14;5.70;;;3.33;;
72856;SDS011;61360;52.134;4.494;2022-07-23T02:20:40;6.30;;;3.17;;
72856;SDS011;61360;52.134;4.494;2022-07-23T02:23:08;5.20;;;2.75;;
72856;SDS011;61360;52.134;4.494;2022-07-23T02:25:34;6.18;;;3.35;;
72856;SDS011;61360;52.134;4.494;2022-07-23T02:28:01;5.95;;;2.88;;
72856;SDS011;61360;52.134;4.494;2022-07-23T02:30:29;5.60;;;3.00;;
72856;SDS011;61360;52.134;4.494;2022-07-23T02:32:55;5.72;;;2.88;;
72856;SDS011;61360;52.134;4.494;2022-07-23T02:35:22;6.85;;;3.65;;
72856;SDS011;61360;52.134;4.494;2022-07-23T02:37:49;6.00;;;3.15;;
72856;SDS011;61360;52.134;4.494;2022-07-23T02:40:16;8.45;;;3.70;;
72856;SDS011;61360;52.134;4.494;2022-07-23T02:42:44;6.72;;;3.58;;
72856;SDS011;61360;52.134;4.494;2022-07-23T02:45:10;8.82;;;3.08;;
72856;SDS011;61360;52.134;4.494;2022-07-23T02:47:37;6.57;;;3.28;;
72856;SDS011;61360;52.134;4.494;2022-07-23T02:50:04;6.57;;;3.20;;
72856;SDS011;61360;52.134;4.494;2022-07-23T02:52:31;5.05;;;2.88;;
72856;SDS011;61360;52.134;4.494;2022-07-23T02:54:57;6.32;;;3.00;;
72856;SDS011;61360;52.134;4.494;2022-07-23T02:57:24;6.90;;;3.05;;
72856;SDS011;61360;52.134;4.494;2022-07-23T02:59:51;5.10;;;2.75;;
72856;SDS011;61360;52.134;4.494;2022-07-23T03:02:17;8.13;;;4.05;;
72856;SDS011;61360;52.134;4.494;2022-07-23T03:04:44;7.07;;;3.45;;
72856;SDS011;61360;52.134;4.494;2022-07-23T03:07:10;8.30;;;4.20;;
72856;SDS011;61360;52.134;4.494;2022-07-23T03:09:37;8.93;;;4.40;;
72856;SDS011;61360;52.134;4.494;2022-07-23T03:12:03;7.45;;;3.92;;
72856;SDS011;61360;52.134;4.494;2022-07-23T03:14:30;8.65;;;3.83;;
72856;SDS011;61360;52.134;4.494;2022-07-23T03:16:56;8.77;;;4.07;;
72856;SDS011;61360;52.134;4.494;2022-07-23T03:19:25;10.18;;;4.20;;
72856;SDS011;61360;52.134;4.494;2022-07-23T03:21:52;7.53;;;3.25;;
72856;SDS011;61360;52.134;4.494;2022-07-23T03:24:19;10.43;;;4.20;;
72856;SDS011;61360;52.134;4.494;2022-07-23T03:26:45;9.48;;;3.90;;
72856;SDS011;61360;52.134;4.494;2022-07-23T03:29:12;6.75;;;3.50;;
72856;SDS011;61360;52.134;4.494;2022-07-23T03:31:38;6.53;;;3.03;;
72856;SDS011;61360;52.134;4.494;2022-07-23T03:34:05;7.93;;;3.95;;
72856;SDS011;61360;52.134;4.494;2022-07-23T03:36:31;7.55;;;3.65;;
72856;SDS011;61360;52.134;4.494;2022-07-23T03:38:58;8.98;;;4.30;;
72856;SDS011;61360;52.134;4.494;2022-07-23T03:41:24;7.75;;;3.50;;
72856;SDS011;61360;52.134;4.494;2022-07-23T03:43:51;8.07;;;3.78;;
72856;SDS011;61360;52.134;4.494;2022-07-23T03:46:17;7.60;;;3.38;;
72856;SDS011;61360;52.134;4.494;2022-07-23T03:48:44;5.13;;;2.42;;
72856;SDS011;61360;52.134;4.494;2022-07-23T03:51:10;5.70;;;3.13;;
72856;SDS011;61360;52.134;4.494;2022-07-23T03:53:37;7.15;;;3.60;;
72856;SDS011;61360;52.134;4.494;2022-07-23T03:56:03;7.72;;;3.88;;
72856;SDS011;61360;52.134;4.494;2022-07-23T03:58:30;6.75;;;3.38;;
72856;SDS011;61360;52.134;4.494;2022-07-23T04:00:57;7.38;;;3.95;;
72856;SDS011;61360;52.134;4.494;2022-07-23T04:03:23;5.93;;;3.75;;
72856;SDS011;61360;52.134;4.494;2022-07-23T04:05:50;6.82;;;3.67;;
72856;SDS011;61360;52.134;4.494;2022-07-23T04:08:16;6.63;;;3.08;;
72856;SDS011;61360;52.134;4.494;2022-07-23T04:10:43;6.80;;;3.08;;
72856;SDS011;61360;52.134;4.494;2022-07-23T04:13:09;8.27;;;3.95;;
72856;SDS011;61360;52.134;4.494;2022-07-23T04:15:36;7.47;;;4.00;;
72856;SDS011;61360;52.134;4.494;2022-07-23T04:18:03;7.03;;;3.58;;
72856;SDS011;61360;52.134;4.494;2022-07-23T04:20:30;7.65;;;3.40;;
72856;SDS011;61360;52.134;4.494;2022-07-23T04:22:56;6.38;;;3.30;;
72856;SDS011;61360;52.134;4.494;2022-07-23T04:25:23;7.13;;;3.05;;
72856;SDS011;61360;52.134;4.494;2022-07-23T04:27:49;8.55;;;4.38;;
72856;SDS011;61360;52.134;4.494;2022-07-23T04:30:16;8.20;;;3.95;;
72856;SDS011;61360;52.134;4.494;2022-07-23T04:32:43;6.57;;;4.05;;
72856;SDS011;61360;52.134;4.494;2022-07-23T04:35:09;10.65;;;3.63;;
72856;SDS011;61360;52.134;4.494;2022-07-23T04:37:36;7.70;;;3.50;;
72856;SDS011;61360;52.134;4.494;2022-07-23T04:40:02;6.28;;;3.28;;
72856;SDS011;61360;52.134;4.494;2022-07-23T04:42:30;6.22;;;3.53;;
72856;SDS011;61360;52.134;4.494;2022-07-23T04:44:56;7.57;;;4.78;;
72856;SDS011;61360;52.134;4.494;2022-07-23T04:47:23;7.95;;;4.70;;
72856;SDS011;61360;52.134;4.494;2022-07-23T04:49:49;7.18;;;4.20;;
72856;SDS011;61360;52.134;4.494;2022-07-23T04:52:16;8.05;;;3.60;;
72856;SDS011;61360;52.134;4.494;2022-07-23T04:54:42;7.07;;;3.85;;
72856;SDS011;61360;52.134;4.494;2022-07-23T04:57:09;7.93;;;4.38;;
72856;SDS011;61360;52.134;4.494;2022-07-23T04:59:36;7.95;;;3.90;;
72856;SDS011;61360;52.134;4.494;2022-07-23T05:02:02;7.13;;;4.15;;
72856;SDS011;61360;52.134;4.494;2022-07-23T05:04:29;9.00;;;4.30;;
72856;SDS011;61360;52.134;4.494;2022-07-23T05:06:57;8.93;;;4.50;;
72856;SDS011;61360;52.134;4.494;2022-07-23T05:09:25;9.68;;;4.82;;
72856;SDS011;61360;52.134;4.494;2022-07-23T05:11:52;8.30;;;4.35;;
72856;SDS011;61360;52.134;4.494;2022-07-23T05:14:18;7.68;;;3.58;;
72856;SDS011;61360;52.134;4.494;2022-07-23T05:16:45;6.28;;;3.15;;
72856;SDS011;61360;52.134;4.494;2022-07-23T05:19:11;6.93;;;2.95;;
72856;SDS011;61360;52.134;4.494;2022-07-23T05:21:38;7.18;;;3.00;;
72856;SDS011;61360;52.134;4.494;2022-07-23T05:24:05;6.78;;;3.05;;
72856;SDS011;61360;52.134;4.494;2022-07-23T05:26:32;4.45;;;2.70;;
72856;SDS011;61360;52.134;4.494;2022-07-23T05:28:58;5.32;;;2.88;;
72856;SDS011;61360;52.134;4.494;2022-07-23T05:31:25;7.00;;;2.50;;
72856;SDS011;61360;52.134;4.494;2022-07-23T05:33:51;5.60;;;2.35;;
72856;SDS011;61360;52.134;4.494;2022-07-23T05:36:18;5.72;;;2.47;;
72856;SDS011;61360;52.134;4.494;2022-07-23T05:38:44;4.38;;;2.20;;
72856;SDS011;61360;52.134;4.494;2022-07-23T05:41:11;6.63;;;2.40;;
72856;SDS011;61360;52.134;4.494;2022-07-23T05:43:37;4.57;;;2.10;;
72856;SDS011;61360;52.134;4.494;2022-07-23T05:46:04;4.03;;;2.55;;
72856;SDS011;61360;52.134;4.494;2022-07-23T05:48:31;7.28;;;3.40;;
72856;SDS011;61360;52.134;4.494;2022-07-23T05:50:57;5.75;;;2.85;;
72856;SDS011;61360;52.134;4.494;2022-07-23T05:53:24;6.38;;;2.70;;
72856;SDS011;61360;52.134;4.494;2022-07-23T05:55:50;5.70;;;2.30;;
72856;SDS011;61360;52.134;4.494;2022-07-23T05:58:17;4.75;;;2.45;;
72856;SDS011;61360;52.134;4.494;2022-07-23T06:00:44;4.68;;;2.10;;
72856;SDS011;61360;52.134;4.494;2022-07-23T06:03:10;4.78;;;2.45;;
72856;SDS011;61360;52.134;4.494;2022-07-23T06:05:37;6.25;;;2.30;;
72856;SDS011;61360;52.134;4.494;2022-07-23T06:08:03;4.50;;;1.75;;
72856;SDS011;61360;52.134;4.494;2022-07-23T06:10:30;6.75;;;1.85;;
72856;SDS011;61360;52.134;4.494;2022-07-23T06:12:56;4.22;;;1.73;;
72856;SDS011;61360;52.134;4.494;2022-07-23T06:15:23;5.63;;;1.80;;
72856;SDS011;61360;52.134;4.494;2022-07-23T06:17:50;4.75;;;1.83;;
72856;SDS011;61360;52.134;4.494;2022-07-23T06:20:16;5.68;;;2.15;;
72856;SDS011;61360;52.134;4.494;2022-07-23T06:22:43;6.30;;;1.85;;
72856;SDS011;61360;52.134;4.494;2022-07-23T06:25:09;4.35;;;1.75;;
72856;SDS011;61360;52.134;4.494;2022-07-23T06:27:36;6.82;;;1.50;;
72856;SDS011;61360;52.134;4.494;2022-07-23T06:30:02;7.68;;;1.80;;
72856;SDS011;61360;52.134;4.494;2022-07-23T06:32:29;4.10;;;1.38;;
72856;SDS011;61360;52.134;4.494;2022-07-23T06:34:56;7.47;;;1.60;;
72856;SDS011;61360;52.134;4.494;2022-07-23T06:37:22;4.65;;;1.90;;
72856;SDS011;61360;52.134;4.494;2022-07-23T06:39:49;5.80;;;2.55;;
72856;SDS011;61360;52.134;4.494;2022-07-23T06:42:15;5.68;;;3.00;;
72856;SDS011;61360;52.134;4.494;2022-07-23T06:44:42;5.68;;;2.40;;
72856;SDS011;61360;52.134;4.494;2022-07-23T06:47:09;7.70;;;3.95;;
72856;SDS011;61360;52.134;4.494;2022-07-23T06:49:35;8.40;;;3.65;;
72856;SDS011;61360;52.134;4.494;2022-07-23T06:52:02;6.78;;;3.72;;
72856;SDS011;61360;52.134;4.494;2022-07-23T06:54:28;6.82;;;3.33;;
72856;SDS011;61360;52.134;4.494;2022-07-23T06:56:55;7.57;;;3.00;;
72856;SDS011;61360;52.134;4.494;2022-07-23T06:59:22;7.53;;;3.15;;
72856;SDS011;61360;52.134;4.494;2022-07-23T07:01:48;7.10;;;3.38;;
72856;SDS011;61360;52.134;4.494;2022-07-23T07:04:15;5.43;;;3.20;;
72856;SDS011;61360;52.134;4.494;2022-07-23T07:06:42;8.25;;;3.63;;
72856;SDS011;61360;52.134;4.494;2022-07-23T07:09:08;6.47;;;3.47;;
72856;SDS011;61360;52.134;4.494;2022-07-23T07:11:35;4.65;;;2.30;;
72856;SDS011;61360;52.134;4.494;2022-07-23T07:14:01;6.22;;;2.15;;
72856;SDS011;61360;52.134;4.494;2022-07-23T07:16:28;5.10;;;2.13;;
72856;SDS011;61360;52.134;4.494;2022-07-23T07:18:54;5.25;;;1.85;;
72856;SDS011;61360;52.134;4.494;2022-07-23T07:21:21;6.63;;;1.92;;
72856;SDS011;61360;52.134;4.494;2022-07-23T07:23:47;6.10;;;3.25;;
72856;SDS011;61360;52.134;4.494;2022-07-23T07:26:14;4.07;;;2.40;;
72856;SDS011;61360;52.134;4.494;2022-07-23T07:28:40;7.43;;;2.45;;
72856;SDS011;61360;52.134;4.494;2022-07-23T07:31:07;6.82;;;2.70;;
72856;SDS011;61360;52.134;4.494;2022-07-23T07:33:34;4.53;;;2.42;;
72856;SDS011;61360;52.134;4.494;2022-07-23T07:36:00;6.13;;;2.10;;
72856;SDS011;61360;52.134;4.494;2022-07-23T07:38:26;7.68;;;2.25;;
72856;SDS011;61360;52.134;4.494;2022-07-23T07:40:53;5.18;;;2.55;;
72856;SDS011;61360;52.134;4.494;2022-07-23T07:43:19;6.38;;;2.85;;
72856;SDS011;61360;52.134;4.494;2022-07-23T07:45:46;6.65;;;2.80;;
72856;SDS011;61360;52.134;4.494;2022-07-23T07:48:13;6.10;;;2.40;;
72856;SDS011;61360;52.134;4.494;2022-07-23T07:50:39;3.97;;;1.80;;
72856;SDS011;61360;52.134;4.494;2022-07-23T07:53:06;5.40;;;2.40;;
72856;SDS011;61360;52.134;4.494;2022-07-23T07:55:32;6.15;;;1.90;;
72856;SDS011;61360;52.134;4.494;2022-07-23T07:57:59;5.28;;;1.92;;
72856;SDS011;61360;52.134;4.494;2022-07-23T08:00:25;4.35;;;1.85;;
72856;SDS011;61360;52.134;4.494;2022-07-23T08:02:52;3.90;;;2.28;;
72856;SDS011;61360;52.134;4.494;2022-07-23T08:05:24;5.05;;;1.80;;
72856;SDS011;61360;52.134;4.494;2022-07-23T08:07:56;2.60;;;1.50;;
72856;SDS011;61360;52.134;4.494;2022-07-23T08:10:24;6.03;;;2.10;;
72856;SDS011;61360;52.134;4.494;2022-07-23T08:12:54;4.97;;;1.55;;
72856;SDS011;61360;52.134;4.494;2022-07-23T08:15:27;4.78;;;1.90;;
72856;SDS011;61360;52.134;4.494;2022-07-23T08:17:56;3.53;;;1.40;;
72856;SDS011;61360;52.134;4.494;2022-07-23T08:20:23;4.95;;;1.58;;
72856;SDS011;61360;52.134;4.494;2022-07-23T08:22:54;4.15;;;1.83;;
72856;SDS011;61360;52.134;4.494;2022-07-23T08:25:32;4.45;;;2.22;;
72856;SDS011;61360;52.134;4.494;2022-07-23T08:28:05;4.20;;;1.67;;
72856;SDS011;61360;52.134;4.494;2022-07-23T08:30:35;3.35;;;1.48;;
72856;SDS011;61360;52.134;4.494;2022-07-23T08:33:05;5.57;;;2.28;;
72856;SDS011;61360;52.134;4.494;2022-07-23T08:35:37;6.60;;;2.00;;
72856;SDS011;61360;52.134;4.494;2022-07-23T08:38:09;4.95;;;1.70;;
72856;SDS011;61360;52.134;4.494;2022-07-23T08:40:37;3.65;;;1.50;;
72856;SDS011;61360;52.134;4.494;2022-07-23T08:43:08;6.30;;;2.10;;
72856;SDS011;61360;52.134;4.494;2022-07-23T08:45:39;4.47;;;2.00;;
72856;SDS011;61360;52.134;4.494;2022-07-23T08:48:18;3.88;;;1.90;;
72856;SDS011;61360;52.134;4.494;2022-07-23T08:50:48;2.72;;;1.50;;
72856;SDS011;61360;52.134;4.494;2022-07-23T08:53:24;4.97;;;1.90;;
72856;SDS011;61360;52.134;4.494;2022-07-23T08:55:54;3.83;;;1.83;;
72856;SDS011;61360;52.134;4.494;2022-07-23T08:58:23;5.55;;;2.65;;
72856;SDS011;61360;52.134;4.494;2022-07-23T09:00:50;7.55;;;2.90;;
72856;SDS011;61360;52.134;4.494;2022-07-23T09:03:18;4.57;;;2.28;;
72856;SDS011;61360;52.134;4.494;2022-07-23T09:05:54;9.02;;;3.90;;
72856;SDS011;61360;52.134;4.494;2022-07-23T09:08:24;5.57;;;3.30;;
72856;SDS011;61360;52.134;4.494;2022-07-23T09:11:00;5.47;;;2.30;;
72856;SDS011;61360;52.134;4.494;2022-07-23T09:13:39;2.85;;;2.00;;
72856;SDS011;61360;52.134;4.494;2022-07-23T09:16:14;5.25;;;2.08;;
72856;SDS011;61360;52.134;4.494;2022-07-23T09:18:51;4.75;;;2.70;;
72856;SDS011;61360;52.134;4.494;2022-07-23T09:21:41;6.28;;;2.50;;
72856;SDS011;61360;52.134;4.494;2022-07-23T09:24:07;6.43;;;2.92;;
72856;SDS011;61360;52.134;4.494;2022-07-23T09:26:42;5.15;;;2.47;;
72856;SDS011;61360;52.134;4.494;2022-07-23T09:29:18;5.80;;;2.67;;
72856;SDS011;61360;52.134;4.494;2022-07-23T09:32:02;8.00;;;2.97;;
72856;SDS011;61360;52.134;4.494;2022-07-23T09:34:34;10.60;;;2.88;;
72856;SDS011;61360;52.134;4.494;2022-07-23T09:37:09;5.30;;;2.63;;
72856;SDS011;61360;52.134;4.494;2022-07-23T09:39:43;5.38;;;2.85;;
72856;SDS011;61360;52.134;4.494;2022-07-23T09:42:21;6.90;;;3.50;;
72856;SDS011;61360;52.134;4.494;2022-07-23T09:44:57;7.22;;;3.97;;
72856;SDS011;61360;52.134;4.494;2022-07-23T09:47:26;7.50;;;3.50;;
72856;SDS011;61360;52.134;4.494;2022-07-23T09:50:06;5.30;;;3.20;;
72856;SDS011;61360;52.134;4.494;2022-07-23T09:52:36;9.82;;;3.70;;
72856;SDS011;61360;52.134;4.494;2022-07-23T09:55:09;7.15;;;4.10;;
72856;SDS011;61360;52.134;4.494;2022-07-23T09:57:37;9.60;;;3.95;;
72856;SDS011;61360;52.134;4.494;2022-07-23T10:00:07;7.05;;;4.28;;
72856;SDS011;61360;52.134;4.494;2022-07-23T10:02:36;6.32;;;3.63;;
72856;SDS011;61360;52.134;4.494;2022-07-23T10:05:05;8.40;;;3.80;;
72856;SDS011;61360;52.134;4.494;2022-07-23T10:07:37;7.75;;;3.47;;
72856;SDS011;61360;52.134;4.494;2022-07-23T10:10:06;7.13;;;3.83;;
72856;SDS011;61360;52.134;4.494;2022-07-23T10:12:33;7.32;;;3.70;;
72856;SDS011;61360;52.134;4.494;2022-07-23T10:15:03;6.70;;;3.80;;
72856;SDS011;61360;52.134;4.494;2022-07-23T10:17:32;5.35;;;3.35;;
72856;SDS011;61360;52.134;4.494;2022-07-23T10:20:00;7.10;;;3.70;;
72856;SDS011;61360;52.134;4.494;2022-07-23T10:22:30;8.38;;;4.60;;
72856;SDS011;61360;52.134;4.494;2022-07-23T10:25:06;9.75;;;4.60;;
72856;SDS011;61360;52.134;4.494;2022-07-23T10:30:40;6.82;;;3.33;;
72856;SDS011;61360;52.134;4.494;2022-07-23T10:36:59;7.63;;;3.72;;
72856;SDS011;61360;52.134;4.494;2022-07-23T10:40:17;9.35;;;3.00;;
72856;SDS011;61360;52.134;4.494;2022-07-23T10:42:48;6.82;;;3.88;;
72856;SDS011;61360;52.134;4.494;2022-07-23T10:45:25;6.32;;;3.15;;
72856;SDS011;61360;52.134;4.494;2022-07-23T10:51:13;5.50;;;3.05;;
72856;SDS011;61360;52.134;4.494;2022-07-23T10:59:22;5.60;;;3.13;;
72856;SDS011;61360;52.134;4.494;2022-07-23T11:01:48;5.55;;;2.97;;
72856;SDS011;61360;52.134;4.494;2022-07-23T11:04:16;6.50;;;3.33;;
72856;SDS011;61360;52.134;4.494;2022-07-23T11:25:10;5.90;;;2.58;;
72856;SDS011;61360;52.134;4.494;2022-07-23T11:28:11;5.13;;;2.80;;
72856;SDS011;61360;52.134;4.494;2022-07-23T11:30:43;5.65;;;2.97;;
72856;SDS011;61360;52.134;4.494;2022-07-23T11:35:40;4.80;;;2.40;;
72856;SDS011;61360;52.134;4.494;2022-07-23T11:38:18;7.70;;;3.45;;
72856;SDS011;61360;52.134;4.494;2022-07-23T11:40:50;7.85;;;3.75;;
72856;SDS011;61360;52.134;4.494;2022-07-23T11:43:24;6.10;;;3.23;;
72856;SDS011;61360;52.134;4.494;2022-07-23T11:45:54;4.47;;;2.25;;
72856;SDS011;61360;52.134;4.494;2022-07-23T11:48:26;5.07;;;2.40;;
72856;SDS011;61360;52.134;4.494;2022-07-23T11:50:56;4.00;;;2.47;;
72856;SDS011;61360;52.134;4.494;2022-07-23T11:53:28;4.50;;;2.30;;
72856;SDS011;61360;52.134;4.494;2022-07-23T11:56:05;4.90;;;2.65;;
72856;SDS011;61360;52.134;4.494;2022-07-23T11:58:37;6.63;;;2.97;;
72856;SDS011;61360;52.134;4.494;2022-07-23T12:01:19;4.47;;;2.28;;
72856;SDS011;61360;52.134;4.494;2022-07-23T12:03:50;5.70;;;2.63;;
72856;SDS011;61360;52.134;4.494;2022-07-23T12:06:17;5.68;;;2.80;;
72856;SDS011;61360;52.134;4.494;2022-07-23T12:08:44;5.05;;;2.50;;
72856;SDS011;61360;52.134;4.494;2022-07-23T12:11:11;5.50;;;2.10;;
72856;SDS011;61360;52.134;4.494;2022-07-23T12:13:39;4.57;;;2.30;;
72856;SDS011;61360;52.134;4.494;2022-07-23T12:16:06;3.85;;;1.92;;
72856;SDS011;61360;52.134;4.494;2022-07-23T12:18:34;4.65;;;2.20;;
72856;SDS011;61360;52.134;4.494;2022-07-23T12:21:03;5.90;;;2.22;;
72856;SDS011;61360;52.134;4.494;2022-07-23T12:23:32;5.55;;;2.15;;
72856;SDS011;61360;52.134;4.494;2022-07-23T12:26:01;4.50;;;2.40;;
72856;SDS011;61360;52.134;4.494;2022-07-23T12:28:30;4.05;;;2.17;;
72856;SDS011;61360;52.134;4.494;2022-07-23T12:30:59;4.70;;;2.08;;
72856;SDS011;61360;52.134;4.494;2022-07-23T12:35:59;4.65;;;1.90;;
72856;SDS011;61360;52.134;4.494;2022-07-23T12:38:41;4.07;;;2.30;;
72856;SDS011;61360;52.134;4.494;2022-07-23T12:41:14;6.15;;;3.17;;
72856;SDS011;61360;52.134;4.494;2022-07-23T12:43:42;5.25;;;2.67;;
72856;SDS011;61360;52.134;4.494;2022-07-23T12:46:12;5.47;;;2.45;;
72856;SDS011;61360;52.134;4.494;2022-07-23T12:51:28;5.05;;;2.08;;
72856;SDS011;61360;52.134;4.494;2022-07-23T12:53:58;4.30;;;2.25;;
72856;SDS011;61360;52.134;4.494;2022-07-23T12:56:36;5.72;;;2.70;;
72856;SDS011;61360;52.134;4.494;2022-07-23T12:59:07;5.75;;;2.10;;
72856;SDS011;61360;52.134;4.494;2022-07-23T13:01:43;3.78;;;1.83;;
72856;SDS011;61360;52.134;4.494;2022-07-23T13:04:17;4.40;;;2.17;;
72856;SDS011;61360;52.134;4.494;2022-07-23T13:06:46;4.50;;;1.90;;
72856;SDS011;61360;52.134;4.494;2022-07-23T13:09:24;5.10;;;1.83;;
72856;SDS011;61360;52.134;4.494;2022-07-23T13:11:53;6.78;;;2.03;;
72856;SDS011;61360;52.134;4.494;2022-07-23T13:14:21;4.68;;;1.83;;
72856;SDS011;61360;52.134;4.494;2022-07-23T13:16:51;3.08;;;1.50;;
72856;SDS011;61360;52.134;4.494;2022-07-23T13:19:19;4.20;;;1.50;;
72856;SDS011;61360;52.134;4.494;2022-07-23T13:21:50;9.07;;;1.80;;
72856;SDS011;61360;52.134;4.494;2022-07-23T13:24:16;4.15;;;1.60;;
72856;SDS011;61360;52.134;4.494;2022-07-23T13:26:43;4.32;;;1.67;;
72856;SDS011;61360;52.134;4.494;2022-07-23T13:29:09;7.57;;;1.70;;
72856;SDS011;61360;52.134;4.494;2022-07-23T13:31:37;4.72;;;1.77;;
72856;SDS011;61360;52.134;4.494;2022-07-23T13:34:04;3.05;;;1.75;;
72856;SDS011;61360;52.134;4.494;2022-07-23T13:36:32;4.30;;;1.90;;
72856;SDS011;61360;52.134;4.494;2022-07-23T13:38:59;3.33;;;1.80;;
72856;SDS011;61360;52.134;4.494;2022-07-23T13:41:25;5.13;;;1.50;;
72856;SDS011;61360;52.134;4.494;2022-07-23T13:43:52;5.35;;;1.92;;
72856;SDS011;61360;52.134;4.494;2022-07-23T13:46:19;8.30;;;3.50;;
72856;SDS011;61360;52.134;4.494;2022-07-23T13:48:46;5.25;;;2.05;;
72856;SDS011;61360;52.134;4.494;2022-07-23T13:51:12;4.70;;;2.03;;
72856;SDS011;61360;52.134;4.494;2022-07-23T13:53:39;5.32;;;1.90;;
72856;SDS011;61360;52.134;4.494;2022-07-23T13:56:05;3.28;;;1.70;;
72856;SDS011;61360;52.134;4.494;2022-07-23T13:58:32;3.90;;;1.80;;
72856;SDS011;61360;52.134;4.494;2022-07-23T14:00:59;3.78;;;2.08;;
72856;SDS011;61360;52.134;4.494;2022-07-23T14:03:25;4.85;;;1.65;;
72856;SDS011;61360;52.134;4.494;2022-07-23T14:05:52;2.90;;;1.85;;
72856;SDS011;61360;52.134;4.494;2022-07-23T14:08:19;4.13;;;1.80;;
72856;SDS011;61360;52.134;4.494;2022-07-23T14:10:46;5.85;;;1.80;;
72856;SDS011;61360;52.134;4.494;2022-07-23T14:13:12;5.88;;;2.03;;
72856;SDS011;61360;52.134;4.494;2022-07-23T14:15:39;7.18;;;2.35;;
72856;SDS011;61360;52.134;4.494;2022-07-23T14:18:06;4.50;;;2.08;;
72856;SDS011;61360;52.134;4.494;2022-07-23T14:20:33;3.97;;;2.00;;
72856;SDS011;61360;52.134;4.494;2022-07-23T14:23:00;5.97;;;2.40;;
72856;SDS011;61360;52.134;4.494;2022-07-23T14:25:27;4.85;;;1.95;;
72856;SDS011;61360;52.134;4.494;2022-07-23T14:27:54;4.50;;;2.10;;
72856;SDS011;61360;52.134;4.494;2022-07-23T14:30:21;3.47;;;2.20;;
72856;SDS011;61360;52.134;4.494;2022-07-23T14:32:50;3.13;;;1.80;;
72856;SDS011;61360;52.134;4.494;2022-07-23T14:35:18;5.85;;;2.17;;
72856;SDS011;61360;52.134;4.494;2022-07-23T14:37:45;7.45;;;2.50;;
72856;SDS011;61360;52.134;4.494;2022-07-23T14:40:13;8.52;;;2.28;;
72856;SDS011;61360;52.134;4.494;2022-07-23T14:42:41;5.15;;;2.20;;
72856;SDS011;61360;52.134;4.494;2022-07-23T14:45:08;5.57;;;2.28;;
72856;SDS011;61360;52.134;4.494;2022-07-23T14:47:35;5.05;;;2.45;;
72856;SDS011;61360;52.134;4.494;2022-07-23T14:50:03;7.97;;;2.75;;
72856;SDS011;61360;52.134;4.494;2022-07-23T14:52:31;5.35;;;2.33;;
72856;SDS011;61360;52.134;4.494;2022-07-23T14:54:58;7.40;;;2.00;;
72856;SDS011;61360;52.134;4.494;2022-07-23T14:57:25;4.28;;;2.35;;
72856;SDS011;61360;52.134;4.494;2022-07-23T14:59:51;5.43;;;2.30;;
72856;SDS011;61360;52.134;4.494;2022-07-23T15:02:18;7.43;;;2.75;;
72856;SDS011;61360;52.134;4.494;2022-07-23T15:04:45;5.32;;;2.17;;
72856;SDS011;61360;52.134;4.494;2022-07-23T15:07:12;5.97;;;2.42;;
72856;SDS011;61360;52.134;4.494;2022-07-23T15:09:40;8.27;;;2.22;;
72856;SDS011;61360;52.134;4.494;2022-07-23T15:12:06;5.22;;;2.20;;
72856;SDS011;61360;52.134;4.494;2022-07-23T15:14:33;4.35;;;2.30;;
72856;SDS011;61360;52.134;4.494;2022-07-23T15:17:01;5.07;;;2.30;;
72856;SDS011;61360;52.134;4.494;2022-07-23T15:19:28;3.92;;;1.90;;
72856;SDS011;61360;52.134;4.494;2022-07-23T15:21:55;3.53;;;2.33;;
72856;SDS011;61360;52.134;4.494;2022-07-23T15:24:22;6.22;;;2.25;;
72856;SDS011;61360;52.134;4.494;2022-07-23T15:26:49;5.60;;;2.58;;
72856;SDS011;61360;52.134;4.494;2022-07-23T15:29:16;4.22;;;2.10;;
72856;SDS011;61360;52.134;4.494;2022-07-23T15:31:43;6.45;;;2.50;;
72856;SDS011;61360;52.134;4.494;2022-07-23T15:34:09;3.47;;;1.95;;
72856;SDS011;61360;52.134;4.494;2022-07-23T15:36:36;5.82;;;2.28;;